• Join FlightAware (Why Join?)
  • Login
  • US Flag 
01:02PM EDT


 

Airport Tracker/Info


-or-


 

Live Flight TrackerFlight Track Log ✈ LOF3416 ✈ 10-Jul-2013 ✈ KORD - KSGF

Flight Track Log - Related Links

Times and Time Zones

All times are in EDT time to prevent confusion due to time zone crossing. See the LOF3416 flight status page for this flight to view local times or setup timezone preferences in your user account.

Time Position Orientation Groundspeed Altitude Reporting Facility
EDT Latitude Longitude Course Direction KTS MPH feet Rate Location/Type
06:13PM 42.0333 -87.8833 194° South 216 249 3,000  Level Chicago TRACON
06:14PM 41.9833 -87.8333 143° Southeast 240 276 5,100 1,920 Climbing Chicago TRACON
06:15PM 41.9167 -87.8667 200° South 274 315 6,900 1,740 Climbing Chicago TRACON
06:17PM 41.8386 -87.9228 208° Southwest 276 318 9,200 1,620 Climbing Chicago Center
06:18PM 41.7631 -87.9658 203° Southwest 292 336 10,900 1,740 Climbing Chicago Center
06:19PM 41.4085 -88.1583 194° South  Level FlightAware Approximate
06:19PM 41.6692 -88.0219 204° Southwest 309 356 12,900  Level Chicago Center
06:20PM 41.5897 -88.0703 204° Southwest 316 364 13,800 780 Climbing Chicago Center
06:21PM 41.5033 -88.1222 204° Southwest 343 395 14,600 720 Climbing Chicago Center
06:22PM 41.4147 -88.1742 204° Southwest 362 417 15,300 780 Climbing Chicago Center
06:23PM 41.2978 -88.2297 200° South 382 440 16,300 840 Climbing Chicago Center
06:24PM 41.1975 -88.2750 199° South 383 441 17,100 840 Climbing Chicago Center
06:25PM 41.0969 -88.3200 199° South 385 443 18,100 840 Climbing Chicago Center
06:26PM 40.9939 -88.3675 199° South 392 451 18,900 1,020 Climbing Chicago Center
06:27PM 40.8703 -88.4217 198° South 392 451 20,300 1,320 Climbing Chicago Center
06:28PM 40.7686 -88.4667 199° South 390 449 21,700 1,260 Climbing Chicago Center
06:29PM 40.6692 -88.5097 198° South 383 441 23,000 1,080 Climbing Chicago Center
06:30PM 40.5706 -88.5544 199° South 379 436 24,000 480 Climbing Chicago Center
06:31PM 40.4600 -88.6022 198° South 390 449 24,000  Level Chicago Center
06:32PM 40.3481 -88.6533 199° South 414 476 24,000  Level Chicago Center
06:33PM 40.2569 -88.7464 218° Southwest 417 480 24,000  Level Chicago Center
06:34PM 40.1714 -88.8508 223° Southwest 418 481 24,000  Level Chicago Center
06:35PM 40.0861 -88.9608 225° Southwest 425 489 24,000  Level Chicago Center
06:36PM 39.9833 -89.0933 225° Southwest 431 496 24,000  Level Chicago Center
06:37PM 39.9119 -89.1814 223° Southwest 431 496 24,000  Level Kansas City Center
06:38PM 39.8253 -89.2922 225° Southwest 434 499 24,000  Level Kansas City Center
06:39PM 39.7378 -89.4014 224° Southwest 434 499 24,000  Level Kansas City Center
06:40PM 39.6428 -89.5194 224° Southwest 435 501 24,000  Level Kansas City Center
06:41PM 39.5561 -89.6272 224° Southwest 434 499 24,000  Level Kansas City Center
06:42PM 39.4689 -89.7372 224° Southwest 437 503 24,000  Level Kansas City Center
06:43PM 39.3808 -89.8447 223° Southwest 437 503 24,000  Level Kansas City Center
06:44PM 39.2939 -89.9533 224° Southwest 437 503 24,000  Level Kansas City Center
06:46PM 39.1869 -90.0850 224° Southwest 442 509 24,000  Level Kansas City Center
06:47PM 39.0981 -90.1933 223° Southwest 442 509 24,000  Level Kansas City Center
06:48PM 39.0097 -90.3028 224° Southwest 443 510 24,000  Level Kansas City Center
06:49PM 38.9167 -90.4178 224° Southwest 440 506 24,000  Level Kansas City Center
06:50PM 38.8353 -90.5361 229° Southwest 447 514 24,000  Level Kansas City Center
06:51PM 38.7683 -90.6669 237° Southwest 435 501 24,000  Level Kansas City Center
06:52PM 38.6961 -90.8081 237° Southwest 437 503 24,000  Level Kansas City Center
06:53PM 38.6306 -90.9367 237° Southwest 435 501 24,000  Level Kansas City Center
06:54PM 38.5628 -91.0694 237° Southwest 443 510 24,000  Level Kansas City Center
06:55PM 38.5139 -91.2086 246° West 436 502 24,000  Level Kansas City Center
06:56PM 38.4825 -91.3567 255° West 437 503 24,000  Level Kansas City Center
06:57PM 38.4711 -91.5278 265° West 421 484 24,000  Level Kansas City Center
06:58PM 38.4911 -91.6783 280° West 425 489 24,000  Level Kansas City Center
06:59PM 38.5114 -91.8275 280° West 428 493 24,000  Level Kansas City Center
07:00PM 38.4856 -91.9731 257° West 430 495 24,000  Level Kansas City Center
07:01PM 38.3731 -92.0978 221° Southwest 444 511 24,000 -480 Level Kansas City Center
07:02PM 38.2903 -92.2139 228° Southwest 443 510 23,100 -1,260 Descending Kansas City Center
07:03PM 38.2206 -92.3203 230° Southwest 403 464 21,400 -2,040 Descending Kansas City Center
07:04PM 38.1456 -92.4144 225° Southwest 362 417 19,000 -2,220 Descending Kansas City Center
07:05PM 38.0742 -92.4992 223° Southwest 353 406 16,900 -1,500 Descending Kansas City Center
07:06PM 38.0022 -92.5839 223° Southwest 353 406 16,000 -480 Descending Kansas City Center
07:07PM 37.9306 -92.6667 222° Southwest 351 404 16,000  Level Kansas City Center
07:08PM 37.8511 -92.7608 223° Southwest 355 409 16,000  Level Kansas City Center
07:09PM 37.7761 -92.8475 222° Southwest 363 418 16,000 -780 Level Kansas City Center
07:10PM 37.7031 -92.9319 222° Southwest 359 413 14,500 -1,620 Descending Kansas City Center
07:11PM 37.6367 -93.0092 223° Southwest 337 388 12,800 -1,860 Descending Kansas City Center
07:12PM 37.5725 -93.0814 222° Southwest 322 371 10,700 -2,220 Descending Kansas City Center
07:13PM 37.4839 -93.1436 209° Southwest 308 354 8,300 -2,220 Descending Kansas City Center
07:14PM 37.4169 -93.1906 209° Southwest 291 335 6,200 -1,800 Descending Kansas City Center
07:15PM 37.3528 -93.2375 210° Southwest 278 320 4,600 -1,080 Descending Kansas City Center
07:16PM 37.2869 -93.2817 208° Southwest 272 313 4,000 -300 Descending Kansas City Center
07:17PM 37.2206 -93.3125 200° South 261 300 4,000 -240 Level Kansas City Center
07:18PM 37.1694 -93.3475 209° Southwest 237 273 3,600 -540 Descending Kansas City Center
07:20PM 37.1747 -93.4139 276° West 208 239 2,900 -720 Descending Kansas City Center
07:21PM 37.2333 -93.3833 219° Southwest  Level FlightAware Approximate
07:28PM 37.2457 -93.3886 219° Southwest  Level Estimated